Time;durP1;ratioP1;P1;durP2;ratioP2;P2;SDS_P1;SDS_P2;PMS_P1;PMS_P2;Temp;Humidity;BMP_temperature;BMP_pressure;BME280_temperature;BME280_humidity;BME280_pressure;Samples;Min_cycle;Max_cycle;Signal;HPM_P1;HPM_P2
2023/11/14 00:00:19;;;;;;;12.95;7.63;;;;;;;9.05;87.96;100022.63;5094468;28;20085;-65
2023/11/14 00:02:45;;;;;;;10.05;8.18;;;;;;;9.05;87.45;100020.81;5096502;28;20055;-66
2023/11/14 00:05:10;;;;;;;10.93;7.15;;;;;;;9.08;86.86;100022.34;5095060;28;20051;-66
2023/11/14 00:07:35;;;;;;;7.82;6.10;;;;;;;9.07;86.56;100024.16;5094375;28;20032;-64
2023/11/14 00:10:03;;;;;;;7.88;5.95;;;;;;;8.79;87.63;99991.59;5093995;28;20040;-65
2023/11/14 00:12:28;;;;;;;8.70;6.55;;;;;;;8.92;88.36;100033.53;5093135;28;20032;-64
2023/11/14 00:14:54;;;;;;;9.07;6.40;;;;;;;8.97;88.27;100036.56;5095205;28;20070;-64
2023/11/14 00:17:19;;;;;;;7.47;6.28;;;;;;;8.97;87.92;100031.28;5093746;28;20023;-64
2023/11/14 00:19:45;;;;;;;9.43;6.70;;;;;;;8.91;87.15;100030.06;5093771;28;20360;-66
2023/11/14 00:22:14;;;;;;;9.35;6.55;;;;;;;8.92;87.74;100031.72;5093639;28;20244;-65
2023/11/14 00:24:39;;;;;;;8.65;6.57;;;;;;;8.94;87.73;100028.94;5093839;28;20031;-65
2023/11/14 00:27:05;;;;;;;11.43;7.80;;;;;;;8.84;87.92;100036.88;5094368;28;20032;-64
2023/11/14 00:29:30;;;;;;;10.55;6.85;;;;;;;8.67;88.41;100034.16;5093946;28;20032;-65
2023/11/14 00:31:56;;;;;;;9.45;5.68;;;;;;;8.57;90.11;100034.19;5094094;28;20105;-64
2023/11/14 00:34:22;;;;;;;9.85;6.57;;;;;;;8.62;90.87;100022.22;5092752;28;20040;-66
2023/11/14 00:36:50;;;;;;;11.48;5.85;;;;;;;8.76;90.39;100017.47;5093975;28;20222;-66
2023/11/14 00:39:16;;;;;;;13.48;6.45;;;;;;;8.77;89.93;100025.22;5094542;28;20074;-65
2023/11/14 00:41:47;;;;;;;8.10;6.90;;;;;;;8.61;90.95;100019.72;5093294;28;20059;-64
2023/11/14 00:44:15;;;;;;;8.52;5.57;;;;;;;8.74;90.99;100017.59;5094910;28;20028;-64
2023/11/14 00:46:41;;;;;;;10.20;6.85;;;;;;;8.80;90.63;100009.09;5093413;28;20035;-64
2023/11/14 00:49:07;;;;;;;13.13;6.97;;;;;;;8.95;90.27;100012.94;5093876;28;20032;-64
2023/11/14 00:51:32;;;;;;;9.32;6.22;;;;;;;9.01;89.03;100016.81;5093826;28;20086;-66
2023/11/14 00:53:58;;;;;;;12.15;6.97;;;;;;;9.03;87.53;100011.38;5093517;28;20063;-64
2023/11/14 00:56:23;;;;;;;6.50;5.38;;;;;;;8.94;85.88;100013.91;5094985;28;20322;-65
2023/11/14 00:58:49;;;;;;;7.40;5.32;;;;;;;8.85;84.43;100003.38;5093993;28;20031;-65
2023/11/14 01:01:15;;;;;;;7.72;5.28;;;;;;;8.77;82.97;100013.84;5093427;28;20028;-64
2023/11/14 01:03:40;;;;;;;8.70;5.70;;;;;;;8.69;84.64;100011.91;5093809;28;20366;-64
2023/11/14 01:06:06;;;;;;;7.28;6.03;;;;;;;8.71;85.13;100028.44;5094324;28;20043;-66
2023/11/14 01:08:32;;;;;;;12.43;7.20;;;;;;;8.74;85.95;100014.97;5096969;28;20046;-66
2023/11/14 01:10:57;;;;;;;13.35;8.80;;;;;;;8.72;86.48;100016.06;5097856;28;20514;-64
2023/11/14 01:13:23;;;;;;;12.55;7.40;;;;;;;8.61;87.70;100015.28;5097721;28;20122;-65
2023/11/14 01:15:48;;;;;;;13.65;7.70;;;;;;;8.45;89.71;100017.66;5097473;28;20047;-65
2023/11/14 01:18:15;;;;;;;11.02;6.00;;;;;;;8.42;90.06;100006.56;5098132;28;20028;-65
2023/11/14 01:20:41;;;;;;;6.32;5.22;;;;;;;8.30;90.54;100003.19;5097383;28;20338;-66
2023/11/14 01:23:06;;;;;;;7.63;4.95;;;;;;;8.42;90.14;100004.75;5098262;28;20090;-66
2023/11/14 01:25:32;;;;;;;5.20;4.60;;;;;;;8.41;88.75;100012.81;5097633;28;20043;-65
2023/11/14 01:27:57;;;;;;;7.55;4.80;;;;;;;8.17;89.40;100014.03;5097381;28;20048;-65
2023/11/14 01:30:23;;;;;;;6.07;4.45;;;;;;;8.06;91.07;100016.81;5100099;28;20036;-64
2023/11/14 01:32:49;;;;;;;7.80;4.55;;;;;;;8.11;91.08;100022.50;5096718;28;20035;-66
2023/11/14 01:35:14;;;;;;;6.82;4.43;;;;;;;8.13;91.56;100023.19;5096640;28;20028;-66
2023/11/14 01:37:40;;;;;;;6.78;4.45;;;;;;;8.27;90.93;100022.78;5097843;28;20077;-65
2023/11/14 01:40:06;;;;;;;6.38;4.20;;;;;;;8.43;90.69;100024.06;5097828;28;20314;-65
2023/11/14 01:42:32;;;;;;;6.45;4.45;;;;;;;8.41;90.62;100026.00;5097403;28;20238;-64
2023/11/14 01:44:57;;;;;;;6.88;4.20;;;;;;;8.52;88.96;100029.31;5097307;28;20024;-65
2023/11/14 01:47:24;;;;;;;6.43;4.35;;;;;;;8.58;88.24;100028.75;5096897;28;20032;-66
2023/11/14 01:49:50;;;;;;;6.47;4.57;;;;;;;8.63;87.80;100023.88;5096554;28;20091;-66
2023/11/14 01:52:17;;;;;;;8.38;5.88;;;;;;;8.57;88.15;100016.53;5096264;28;20085;-65
2023/11/14 01:54:43;;;;;;;7.28;4.10;;;;;;;8.55;88.02;100018.47;5095595;28;20364;-65
2023/11/14 01:57:12;;;;;;;6.85;4.20;;;;;;;8.50;88.48;100019.88;5095029;28;20032;-64
2023/11/14 01:59:39;;;;;;;7.47;4.43;;;;;;;8.52;88.83;100012.66;5097043;28;20034;-65
2023/11/14 02:02:04;;;;;;;9.18;5.25;;;;;;;8.61;87.73;99999.44;5097202;28;20037;-65
2023/11/14 02:04:33;;;;;;;7.97;5.25;;;;;;;8.63;86.92;99992.19;5096838;28;20346;-66
2023/11/14 02:06:58;;;;;;;5.90;4.38;;;;;;;8.65;87.01;99986.78;5097381;28;20364;-66
2023/11/14 02:09:25;;;;;;;7.25;4.20;;;;;;;8.68;86.34;99990.94;5096640;28;20040;-65
2023/11/14 02:11:51;;;;;;;5.80;4.28;;;;;;;8.64;85.56;99995.69;5097253;28;20260;-64
2023/11/14 02:14:17;;;;;;;6.63;4.07;;;;;;;8.64;86.38;99998.31;5097090;28;20035;-64
2023/11/14 02:16:46;;;;;;;6.60;3.97;;;;;;;8.61;85.93;99996.78;5096783;28;20063;-64
2023/11/14 02:19:12;;;;;;;6.75;4.00;;;;;;;8.62;84.65;99995.00;5094944;28;20040;-66
2023/11/14 02:21:38;;;;;;;4.22;3.83;;;;;;;8.60;84.86;99997.78;5095746;28;20047;-66
2023/11/14 02:24:08;;;;;;;6.00;3.70;;;;;;;8.57;85.08;99990.13;5096537;28;20031;-65
2023/11/14 02:26:33;;;;;;;7.50;4.50;;;;;;;8.46;85.74;99992.94;5096847;28;20040;-65
2023/11/14 02:28:59;;;;;;;8.40;4.15;;;;;;;8.39;85.54;99991.84;5097004;28;20359;-65
2023/11/14 02:31:25;;;;;;;7.53;4.80;;;;;;;8.32;86.39;100001.25;5096842;28;20044;-64
2023/11/14 02:33:50;;;;;;;9.98;5.10;;;;;;;8.22;86.48;100010.97;5096121;28;20088;-65
2023/11/14 02:36:15;;;;;;;10.45;6.63;;;;;;;8.14;87.38;100011.69;5096417;28;20231;-66
2023/11/14 02:38:41;;;;;;;9.85;4.97;;;;;;;8.06;87.78;100006.25;5096179;28;20028;-64
2023/11/14 02:41:07;;;;;;;7.97;5.45;;;;;;;8.00;87.82;100005.03;5095725;28;20036;-64
2023/11/14 02:43:32;;;;;;;8.77;5.55;;;;;;;7.91;88.56;100000.56;5095403;28;20318;-64
2023/11/14 02:45:57;;;;;;;9.30;5.25;;;;;;;7.85;88.93;100001.13;5095746;28;20044;-64
2023/11/14 02:48:23;;;;;;;7.78;5.82;;;;;;;7.95;88.76;100001.97;5095663;28;20024;-65
2023/11/14 02:50:52;;;;;;;8.13;5.38;;;;;;;8.03;88.24;100001.28;5095179;28;20050;-66
2023/11/14 02:53:21;;;;;;;7.50;4.82;;;;;;;7.87;82.85;100004.47;5094115;28;20047;-64
2023/11/14 02:55:47;;;;;;;6.93;4.63;;;;;;;7.91;81.40;100007.66;5095434;28;20103;-64
2023/11/14 02:58:13;;;;;;;6.63;4.85;;;;;;;7.90;81.86;100004.19;5095395;28;20082;-65
2023/11/14 03:00:45;;;;;;;7.78;4.72;;;;;;;7.93;82.11;100003.91;5095002;28;20044;-64
2023/11/14 03:03:10;;;;;;;6.88;5.80;;;;;;;7.98;82.27;99996.41;5095542;28;20028;-66
2023/11/14 03:05:39;;;;;;;6.70;4.45;;;;;;;7.98;82.06;99991.13;5094574;28;20419;-64
2023/11/14 03:08:05;;;;;;;9.02;5.63;;;;;;;7.98;82.73;99988.50;5094665;28;20356;-64
2023/11/14 03:10:33;;;;;;;10.07;5.97;;;;;;;7.94;83.78;99992.38;5094968;28;20145;-64
2023/11/14 03:13:00;;;;;;;7.70;5.90;;;;;;;7.61;83.67;99995.44;5095038;28;20169;-64
2023/11/14 03:15:26;;;;;;;7.47;4.93;;;;;;;7.57;84.44;99999.31;5094852;28;20035;-66
2023/11/14 03:17:58;;;;;;;7.22;5.55;;;;;;;7.69;84.57;99999.03;5095088;28;20316;-66
2023/11/14 03:20:27;;;;;;;6.43;5.43;;;;;;;7.64;85.77;100011.81;5094471;28;20044;-65
2023/11/14 03:22:54;;;;;;;9.20;5.30;;;;;;;7.62;86.61;100000.56;5094881;28;20039;-65
2023/11/14 03:25:20;;;;;;;9.77;5.07;;;;;;;7.68;86.25;100010.56;5094821;28;20043;-65
2023/11/14 03:27:45;;;;;;;9.18;5.53;;;;;;;7.78;86.06;100015.00;5095071;28;20229;-66
2023/11/14 03:30:12;;;;;;;8.32;5.15;;;;;;;7.76;85.83;100009.88;5093799;28;20122;-66
2023/11/14 03:32:37;;;;;;;9.30;5.60;;;;;;;7.83;86.09;100024.16;5094156;28;20558;-65
2023/11/14 03:35:04;;;;;;;10.48;6.68;;;;;;;7.81;86.37;100026.09;5094402;28;20036;-65
2023/11/14 03:37:30;;;;;;;11.57;7.30;;;;;;;7.71;86.88;100029.69;5094608;28;20035;-64
2023/11/14 03:39:55;;;;;;;13.98;11.23;;;;;;;7.63;87.31;100019.84;5094861;28;20363;-64
2023/11/14 03:42:21;;;;;;;13.60;10.52;;;;;;;7.59;88.11;100026.34;5094539;28;20069;-67
2023/11/14 03:44:46;;;;;;;15.60;10.30;;;;;;;7.47;89.25;100028.28;5094915;28;20318;-66
2023/11/14 03:47:12;;;;;;;13.10;8.00;;;;;;;7.48;89.44;100027.31;5094703;28;20039;-63
2023/11/14 03:49:37;;;;;;;12.95;7.07;;;;;;;7.55;88.98;100031.06;5095527;28;20039;-64
2023/11/14 03:52:03;;;;;;;9.13;5.55;;;;;;;7.55;88.65;100033.69;5094934;28;20044;-64
2023/11/14 03:54:28;;;;;;;9.45;5.53;;;;;;;7.26;89.44;100007.25;5095237;28;20032;-64
2023/11/14 03:56:54;;;;;;;10.63;8.00;;;;;;;7.30;90.38;100042.94;5095356;28;20035;-65
2023/11/14 03:59:20;;;;;;;10.95;8.60;;;;;;;7.31;90.55;100054.28;5096222;28;20028;-64
2023/11/14 04:01:45;;;;;;;10.68;8.07;;;;;;;7.47;90.82;100041.44;5095021;28;20035;-64
2023/11/14 04:04:11;;;;;;;12.90;8.20;;;;;;;7.57;90.39;100046.75;5094840;28;20539;-64
2023/11/14 04:06:36;;;;;;;11.48;7.13;;;;;;;7.72;89.10;100041.91;5095031;28;20125;-64
2023/11/14 04:09:02;;;;;;;9.60;5.82;;;;;;;7.79;88.95;100037.75;5093027;28;20036;-65
2023/11/14 04:11:27;;;;;;;9.02;6.20;;;;;;;7.78;88.79;100052.75;5094765;28;20131;-65
2023/11/14 04:13:53;;;;;;;9.75;5.50;;;;;;;7.84;88.11;100059.28;5094225;28;20040;-64
2023/11/14 04:16:19;;;;;;;7.60;4.63;;;;;;;7.88;87.49;100045.69;5095022;28;20203;-64
2023/11/14 04:18:45;;;;;;;7.38;5.38;;;;;;;7.88;86.64;100035.13;5093852;28;20032;-64
2023/11/14 04:21:18;;;;;;;5.88;5.03;;;;;;;7.84;86.00;100036.38;5094197;28;20047;-64
2023/11/14 04:23:44;;;;;;;10.15;7.07;;;;;;;7.78;86.75;100044.00;5094788;28;20028;-64
2023/11/14 04:26:10;;;;;;;10.80;7.13;;;;;;;7.67;87.02;100048.44;5094068;28;20028;-64
2023/11/14 04:28:36;;;;;;;11.57;6.82;;;;;;;7.61;87.87;100058.69;5093049;28;20108;-65
2023/11/14 04:31:02;;;;;;;8.82;5.45;;;;;;;7.65;87.98;100047.72;5093018;28;20338;-64
2023/11/14 04:33:27;;;;;;;10.90;5.30;;;;;;;7.67;87.63;100053.69;5093344;28;20108;-63
2023/11/14 04:35:53;;;;;;;8.52;5.03;;;;;;;7.72;87.18;100052.44;5093864;28;20027;-63
2023/11/14 04:38:18;;;;;;;9.40;5.10;;;;;;;7.78;86.64;100052.75;5093837;28;20024;-65
2023/11/14 04:40:44;;;;;;;8.85;5.13;;;;;;;7.67;86.25;100055.50;5093930;28;20348;-66
2023/11/14 04:43:09;;;;;;;8.73;5.38;;;;;;;7.60;86.50;100051.75;5092476;28;20042;-65
2023/11/14 04:45:34;;;;;;;11.60;5.47;;;;;;;7.61;86.35;100054.25;5093643;28;20330;-64
2023/11/14 04:48:01;;;;;;;6.70;4.90;;;;;;;7.59;86.26;100050.06;5093637;28;20081;-64
2023/11/14 04:50:27;;;;;;;8.77;5.00;;;;;;;7.65;85.29;100046.91;5093505;28;20032;-64
2023/11/14 04:52:53;;;;;;;9.15;4.88;;;;;;;7.58;83.26;100048.41;5094188;28;20059;-64
2023/11/14 04:55:18;;;;;;;6.85;4.78;;;;;;;7.44;84.04;100041.72;5094018;28;20241;-64
2023/11/14 04:57:44;;;;;;;8.52;5.25;;;;;;;7.40;83.32;100045.59;5094534;28;20036;-65
2023/11/14 05:00:10;;;;;;;8.98;4.45;;;;;;;7.40;81.06;100036.84;5093599;28;20168;-65
2023/11/14 05:02:36;;;;;;;7.40;4.75;;;;;;;7.38;81.02;100038.78;5093283;28;20337;-64
2023/11/14 05:05:02;;;;;;;7.95;4.72;;;;;;;7.31;81.30;100039.31;5093033;28;20108;-64
2023/11/14 05:07:27;;;;;;;9.10;5.65;;;;;;;6.97;82.17;100041.38;5094371;28;20032;-64
2023/11/14 05:09:53;;;;;;;11.52;7.40;;;;;;;6.83;85.78;100049.63;5094580;28;20024;-64
2023/11/14 05:12:18;;;;;;;11.15;7.25;;;;;;;7.03;86.44;100053.19;5093962;28;20437;-64
2023/11/14 05:14:46;;;;;;;8.15;5.55;;;;;;;7.15;85.50;100051.28;5094362;28;20032;-66
2023/11/14 05:17:12;;;;;;;11.68;6.28;;;;;;;7.16;84.07;100047.69;5093162;28;20277;-64
2023/11/14 05:19:37;;;;;;;10.20;5.75;;;;;;;7.16;84.11;100053.78;5094561;28;20051;-64
2023/11/14 05:22:03;;;;;;;13.23;6.93;;;;;;;7.23;82.66;100062.00;5093863;28;20043;-64
2023/11/14 05:24:28;;;;;;;12.05;7.25;;;;;;;7.28;82.71;100073.84;5094226;28;20043;-64
2023/11/14 05:26:54;;;;;;;11.45;5.88;;;;;;;7.24;82.44;100069.75;5094236;28;20042;-64
2023/11/14 05:29:19;;;;;;;11.63;6.45;;;;;;;7.21;84.18;100059.50;5093942;28;20846;-65
2023/11/14 05:31:44;;;;;;;12.45;7.05;;;;;;;7.20;85.99;100054.38;5093290;28;20055;-66
2023/11/14 05:34:10;;;;;;;12.45;8.00;;;;;;;7.34;86.80;100061.94;5093834;28;20425;-65
2023/11/14 05:36:36;;;;;;;13.55;7.47;;;;;;;7.19;89.41;100065.88;5093890;28;20328;-64
2023/11/14 05:39:03;;;;;;;13.23;6.93;;;;;;;7.22;90.47;100074.34;5094174;28;20060;-65
2023/11/14 05:41:29;;;;;;;15.35;7.10;;;;;;;7.35;89.87;100071.50;5093237;28;20044;-64
2023/11/14 05:43:54;;;;;;;11.23;6.40;;;;;;;7.48;89.38;100077.38;5093479;28;20376;-65
2023/11/14 05:46:20;;;;;;;14.05;7.32;;;;;;;7.46;90.19;100083.75;5093135;28;20145;-66
2023/11/14 05:48:46;;;;;;;13.98;7.85;;;;;;;7.59;89.92;100077.25;5093876;28;20065;-65
2023/11/14 05:51:11;;;;;;;16.48;7.07;;;;;;;7.63;89.12;100089.19;5092834;28;20073;-64
2023/11/14 05:53:36;;;;;;;15.40;6.45;;;;;;;7.59;90.19;100087.81;5094433;28;20047;-65
2023/11/14 05:56:02;;;;;;;12.93;5.55;;;;;;;7.62;90.61;100069.09;5096496;28;20035;-64
2023/11/14 05:58:28;;;;;;;10.00;5.60;;;;;;;7.72;90.73;100068.28;5096258;28;20183;-65
2023/11/14 06:00:53;;;;;;;10.57;5.55;;;;;;;7.88;90.51;100079.13;5096660;28;20035;-64
2023/11/14 06:03:21;;;;;;;12.73;4.80;;;;;;;7.98;89.61;100078.16;5096722;28;20263;-66
2023/11/14 06:05:47;;;;;;;6.75;5.15;;;;;;;8.02;89.37;100087.47;5096834;28;20039;-66
2023/11/14 06:08:12;;;;;;;13.73;5.57;;;;;;;8.03;89.59;100088.28;5096427;28;20354;-65
2023/11/14 06:10:38;;;;;;;10.93;6.03;;;;;;;8.08;89.88;100087.88;5096853;28;20140;-64
2023/11/14 06:13:03;;;;;;;11.40;6.25;;;;;;;8.15;88.30;100086.38;5095865;28;20036;-65
2023/11/14 06:15:29;;;;;;;11.57;6.53;;;;;;;7.96;89.32;100089.81;5096834;28;20031;-66
2023/11/14 06:17:54;;;;;;;10.57;6.22;;;;;;;7.83;90.24;100097.97;5096175;28;20238;-65
2023/11/14 06:20:22;;;;;;;17.75;7.93;;;;;;;8.02;90.45;100098.00;5096581;28;20035;-65
2023/11/14 06:22:49;;;;;;;14.05;8.38;;;;;;;7.94;90.88;100100.50;5097124;28;20024;-65
2023/11/14 06:25:15;;;;;;;13.98;7.00;;;;;;;7.80;91.35;100102.69;5095215;28;20107;-64
2023/11/14 06:27:40;;;;;;;10.05;6.03;;;;;;;7.87;91.85;100102.00;5096544;28;20117;-65
2023/11/14 06:30:06;;;;;;;9.93;6.38;;;;;;;7.70;93.87;100105.31;5094875;28;20046;-66
2023/11/14 06:32:33;;;;;;;8.60;5.28;;;;;;;7.96;93.17;100106.47;5095747;28;20069;-65
2023/11/14 06:34:59;;;;;;;6.75;4.75;;;;;;;7.99;93.46;100092.19;5096793;28;20111;-64
2023/11/14 06:37:24;;;;;;;7.78;4.93;;;;;;;8.02;93.48;100079.56;5095682;28;20042;-65
2023/11/14 06:39:50;;;;;;;7.80;4.88;;;;;;;8.19;93.42;100080.66;5095008;28;20043;-64
2023/11/14 06:42:15;;;;;;;8.23;4.78;;;;;;;8.03;94.31;100072.47;5095112;28;20028;-66
2023/11/14 06:44:44;;;;;;;6.75;4.55;;;;;;;8.26;94.12;100062.47;5095347;28;20032;-67
2023/11/14 06:47:10;;;;;;;6.68;4.80;;;;;;;8.45;94.18;100072.25;5094680;28;20039;-65
2023/11/14 06:49:36;;;;;;;7.88;4.65;;;;;;;8.63;93.82;100087.22;5093974;28;20031;-64
2023/11/14 06:52:01;;;;;;;6.35;4.90;;;;;;;8.86;93.68;100090.38;5095302;28;20028;-65
2023/11/14 06:54:26;;;;;;;6.07;4.20;;;;;;;9.11;92.81;100091.56;5095852;28;20032;-65
2023/11/14 06:56:52;;;;;;;7.57;4.95;;;;;;;9.21;93.09;100095.00;5095782;28;20086;-65
2023/11/14 06:59:17;;;;;;;6.60;4.10;;;;;;;9.42;92.46;100089.53;5094675;28;20266;-67
2023/11/14 07:01:48;;;;;;;6.18;4.35;;;;;;;9.52;91.83;100086.84;5094627;28;20349;-67
2023/11/14 07:04:13;;;;;;;4.63;3.63;;;;;;;9.85;90.64;100090.69;5094675;28;20260;-65
2023/11/14 07:06:39;;;;;;;6.88;4.45;;;;;;;9.89;90.33;100087.59;5094624;28;20211;-64
2023/11/14 07:09:05;;;;;;;6.18;4.18;;;;;;;10.13;89.43;100087.00;5093844;28;20078;-65
2023/11/14 07:11:30;;;;;;;7.28;4.35;;;;;;;10.25;88.44;100087.63;5093931;28;20225;-65
2023/11/14 07:13:55;;;;;;;5.85;4.45;;;;;;;10.38;88.86;100087.25;5094484;28;20028;-66
2023/11/14 07:16:21;;;;;;;5.95;4.32;;;;;;;10.42;88.69;100088.66;5092732;28;20043;-67
2023/11/14 07:18:46;;;;;;;7.20;5.22;;;;;;;10.45;90.26;100080.41;5093476;28;20027;-66
2023/11/14 07:21:12;;;;;;;6.45;5.30;;;;;;;10.50;90.53;100083.41;5093534;28;20039;-65
2023/11/14 07:23:38;;;;;;;5.68;4.60;;;;;;;10.69;89.15;100070.00;5093851;28;20047;-65
2023/11/14 07:26:04;;;;;;;5.88;5.10;;;;;;;10.83;89.39;100068.59;5093583;28;20036;-66
2023/11/14 07:28:30;;;;;;;7.57;4.55;;;;;;;11.00;89.64;100072.19;5093870;28;20035;-65
2023/11/14 07:30:56;;;;;;;7.43;4.97;;;;;;;11.04;88.43;100081.47;5093609;28;20044;-67
2023/11/14 07:33:21;;;;;;;7.20;4.00;;;;;;;11.13;88.98;100077.88;5093915;28;20048;-65
2023/11/14 07:35:47;;;;;;;7.03;5.70;;;;;;;11.26;87.51;100069.50;5095092;28;20044;-65
2023/11/14 07:38:12;;;;;;;7.75;5.18;;;;;;;11.31;87.90;100073.34;5092631;28;20473;-65
2023/11/14 07:40:38;;;;;;;5.68;4.18;;;;;;;11.35;87.88;100071.19;5094288;28;20287;-66
2023/11/14 07:43:05;;;;;;;8.88;5.40;;;;;;;11.25;87.23;100067.84;5094939;28;20038;-65
2023/11/14 07:45:31;;;;;;;13.52;5.25;;;;;;;11.41;87.95;100066.09;5094199;28;20278;-67
2023/11/14 07:47:58;;;;;;;7.38;4.75;;;;;;;11.44;87.25;100063.16;5094491;28;20029;-67
2023/11/14 07:50:24;;;;;;;7.45;4.43;;;;;;;11.52;87.18;100057.03;5094472;28;20290;-66
2023/11/14 07:52:50;;;;;;;7.38;5.15;;;;;;;11.52;87.68;100062.34;5095023;28;20101;-65
2023/11/14 07:55:16;;;;;;;7.72;5.18;;;;;;;11.38;88.35;100070.88;5094777;28;20252;-66
2023/11/14 07:57:42;;;;;;;8.27;5.45;;;;;;;11.13;90.17;100072.59;5095380;28;20036;-67
2023/11/14 08:00:08;;;;;;;7.90;4.88;;;;;;;10.92;91.12;100062.34;5094627;28;20052;-67
2023/11/14 08:02:35;;;;;;;8.15;5.07;;;;;;;11.04;90.50;100069.06;5093127;28;20032;-65
2023/11/14 08:05:00;;;;;;;8.13;5.10;;;;;;;11.09;89.83;100061.47;5095236;28;20039;-66
2023/11/14 08:07:26;;;;;;;7.93;5.82;;;;;;;11.23;89.59;100051.25;5094784;28;20103;-66
2023/11/14 08:09:51;;;;;;;6.75;4.90;;;;;;;11.34;89.75;100049.16;5094659;28;20036;-65
2023/11/14 08:12:17;;;;;;;9.75;5.80;;;;;;;11.11;91.45;100048.06;5094371;28;20059;-67
2023/11/14 08:14:42;;;;;;;9.20;5.53;;;;;;;10.96;92.40;100047.81;5094885;28;20046;-65
2023/11/14 08:17:07;;;;;;;10.70;5.80;;;;;;;11.08;91.89;100064.28;5092997;28;20046;-66
2023/11/14 08:19:33;;;;;;;7.13;5.45;;;;;;;11.20;91.51;100058.53;5094626;28;20226;-66
2023/11/14 08:22:04;;;;;;;10.23;5.78;;;;;;;11.45;90.55;100061.31;5093762;28;20040;-65
2023/11/14 08:24:30;;;;;;;10.38;5.22;;;;;;;11.65;90.27;100056.59;5093560;28;20468;-65
2023/11/14 08:26:55;;;;;;;9.10;5.50;;;;;;;11.68;88.60;100058.91;5093766;28;20054;-65
2023/11/14 08:29:21;;;;;;;5.93;4.68;;;;;;;11.78;88.56;100057.00;5094101;28;20202;-64
2023/11/14 08:31:47;;;;;;;7.55;5.60;;;;;;;11.79;87.92;100040.06;5094005;28;20241;-63
2023/11/14 08:34:12;;;;;;;7.32;4.53;;;;;;;11.89;88.71;100035.44;5095052;28;20066;-66
2023/11/14 08:36:38;;;;;;;8.20;4.95;;;;;;;11.94;87.70;100041.09;5093473;28;20044;-67
2023/11/14 08:39:04;;;;;;;6.63;5.13;;;;;;;12.09;87.33;100042.13;5093987;28;20043;-65
2023/11/14 08:41:30;;;;;;;9.00;5.40;;;;;;;12.17;86.48;100032.50;5093920;28;20042;-63
2023/11/14 08:43:57;;;;;;;7.85;4.90;;;;;;;12.30;86.37;100035.47;5093792;28;20039;-64
2023/11/14 08:46:22;;;;;;;8.65;5.22;;;;;;;12.44;86.07;100030.34;5094818;28;20492;-64
2023/11/14 08:48:48;;;;;;;7.82;5.05;;;;;;;12.51;85.67;100025.22;5094152;28;20048;-64
2023/11/14 08:51:16;;;;;;;6.88;5.25;;;;;;;12.55;83.79;100025.72;5093380;28;20024;-65
2023/11/14 08:53:43;;;;;;;8.23;5.40;;;;;;;12.56;84.48;100024.72;5093433;28;20047;-65
2023/11/14 08:56:09;;;;;;;9.25;5.90;;;;;;;12.56;83.65;100025.53;5093352;28;20036;-64
2023/11/14 08:58:36;;;;;;;8.15;4.80;;;;;;;12.58;85.17;100018.22;5093528;28;20032;-64
2023/11/14 09:01:02;;;;;;;9.48;5.13;;;;;;;12.62;83.51;100016.91;5094027;28;20040;-63
2023/11/14 09:03:27;;;;;;;8.30;5.25;;;;;;;12.63;83.35;100010.59;5092903;28;20242;-63
2023/11/14 09:05:52;;;;;;;8.63;5.97;;;;;;;12.37;84.27;100001.97;5093461;28;20039;-65
2023/11/14 09:08:18;;;;;;;9.35;5.53;;;;;;;12.53;84.72;100011.78;5093096;28;20074;-65
2023/11/14 09:10:44;;;;;;;6.60;5.47;;;;;;;12.59;84.19;100000.47;5093187;28;20036;-64
2023/11/14 09:13:11;;;;;;;8.05;5.93;;;;;;;12.65;84.58;100005.09;5092900;28;20046;-63
2023/11/14 09:15:38;;;;;;;9.95;6.00;;;;;;;12.53;85.44;100004.63;5093166;28;20039;-64
2023/11/14 09:18:04;;;;;;;11.38;6.38;;;;;;;12.46;85.60;100004.44;5093973;28;20040;-64
2023/11/14 09:20:29;;;;;;;9.45;6.10;;;;;;;12.44;85.38;100011.75;5092469;28;20039;-67
2023/11/14 09:22:55;;;;;;;9.20;6.10;;;;;;;12.42;84.91;100013.75;5094134;28;20038;-66
2023/11/14 09:25:20;;;;;;;10.23;5.32;;;;;;;12.46;85.55;99988.50;5093518;28;20036;-66
2023/11/14 09:27:46;;;;;;;7.97;6.10;;;;;;;12.50;85.17;99977.56;5093986;28;20338;-66
2023/11/14 09:30:14;;;;;;;7.20;5.35;;;;;;;12.46;85.04;99969.09;5097436;28;20078;-66
2023/11/14 09:32:39;;;;;;;10.93;6.25;;;;;;;12.45;86.88;99976.22;5096803;28;20044;-66
2023/11/14 09:35:05;;;;;;;7.60;5.40;;;;;;;12.46;85.33;99966.44;5097356;28;20370;-66
2023/11/14 09:37:30;;;;;;;8.27;5.40;;;;;;;12.49;85.08;99955.50;5097078;28;20549;-65
2023/11/14 09:39:56;;;;;;;8.30;4.75;;;;;;;12.52;82.33;99944.53;5097386;28;20028;-65
2023/11/14 09:42:22;;;;;;;6.45;4.57;;;;;;;12.62;82.93;99934.53;5097570;28;20341;-64
2023/11/14 09:44:48;;;;;;;8.98;5.63;;;;;;;12.63;83.31;99938.03;5098043;28;20035;-64
2023/11/14 09:47:15;;;;;;;12.35;5.53;;;;;;;12.69;81.01;99924.06;5097320;28;20419;-64
2023/11/14 09:49:42;;;;;;;6.18;4.80;;;;;;;12.52;81.06;99928.59;5097104;28;20035;-66
2023/11/14 09:52:10;;;;;;;7.07;4.70;;;;;;;12.55;81.10;99909.66;5096641;28;20028;-66
2023/11/14 09:54:37;;;;;;;7.00;5.03;;;;;;;12.66;80.81;99905.81;5096480;28;20035;-66
2023/11/14 09:57:04;;;;;;;11.07;4.80;;;;;;;12.73;81.21;99907.59;5096530;28;20335;-65
2023/11/14 09:59:32;;;;;;;7.50;4.55;;;;;;;12.87;78.14;99910.53;5096602;28;20047;-65
2023/11/14 10:01:58;;;;;;;7.57;4.57;;;;;;;12.91;78.77;99909.19;5095476;28;20222;-66
2023/11/14 10:04:23;;;;;;;4.68;4.03;;;;;;;12.89;78.24;99916.53;5096443;28;20039;-66
2023/11/14 10:06:51;;;;;;;7.03;4.50;;;;;;;12.84;78.08;99911.72;5098076;28;20085;-65
2023/11/14 10:09:18;;;;;;;5.78;3.92;;;;;;;12.95;77.46;99919.31;5096804;28;20334;-65
2023/11/14 10:11:47;;;;;;;5.93;4.20;;;;;;;13.00;78.68;99921.44;5095814;28;20218;-65
2023/11/14 10:14:14;;;;;;;5.75;3.97;;;;;;;13.07;77.59;99919.75;5096649;28;20036;-65
2023/11/14 10:16:40;;;;;;;7.00;4.32;;;;;;;13.13;77.68;99907.59;5096538;28;20263;-64
2023/11/14 10:19:11;;;;;;;4.68;3.20;;;;;;;13.08;74.92;99894.81;5096014;28;20044;-64
2023/11/14 10:21:36;;;;;;;5.60;3.72;;;;;;;13.15;77.48;99885.16;5095815;28;20032;-64
2023/11/14 10:24:11;;;;;;;3.97;3.20;;;;;;;13.22;75.81;99885.31;5096510;28;20047;-64
2023/11/14 10:26:53;;;;;;;5.40;3.33;;;;;;;13.23;76.77;99860.38;5097182;28;20032;-64
2023/11/14 10:29:23;;;;;;;4.70;3.50;;;;;;;13.36;77.66;99856.13;5095279;28;20040;-65
2023/11/14 10:31:50;;;;;;;4.95;3.85;;;;;;;13.36;77.17;99853.47;5096390;28;20409;-66
2023/11/14 10:34:33;;;;;;;6.60;4.18;;;;;;;13.43;77.09;99850.91;5097154;28;20078;-64
2023/11/14 10:37:01;;;;;;;4.90;4.10;;;;;;;13.33;75.86;99855.66;5094784;28;20302;-64
2023/11/14 10:39:27;;;;;;;6.78;4.68;;;;;;;13.40;75.71;99859.25;5095329;28;20061;-64
2023/11/14 10:41:53;;;;;;;6.45;4.10;;;;;;;13.47;75.97;99856.72;5096178;28;20738;-64
2023/11/14 10:44:20;;;;;;;6.72;4.25;;;;;;;13.56;75.88;99853.00;5096793;28;20327;-64
2023/11/14 10:46:53;;;;;;;6.85;3.78;;;;;;;13.60;75.42;99849.81;5095884;28;20039;-64
2023/11/14 10:49:20;;;;;;;5.93;3.63;;;;;;;13.65;75.74;99847.44;5096875;28;20036;-64
2023/11/14 10:51:50;;;;;;;7.03;4.47;;;;;;;13.71;75.40;99836.09;5097010;28;20043;-64
2023/11/14 10:54:18;;;;;;;6.35;3.78;;;;;;;13.70;73.67;99828.28;5096776;28;20043;-65
2023/11/14 10:56:45;;;;;;;6.13;3.92;;;;;;;13.66;72.46;99824.31;5095564;28;20314;-65
2023/11/14 10:59:15;;;;;;;4.25;3.47;;;;;;;13.64;74.02;99818.34;5096337;28;20032;-67
2023/11/14 11:01:45;;;;;;;5.53;3.80;;;;;;;13.67;74.27;99807.34;5094986;28;20095;-65
2023/11/14 11:04:13;;;;;;;4.57;3.63;;;;;;;13.66;71.90;99817.16;5093664;28;20512;-64
2023/11/14 11:06:39;;;;;;;5.03;4.15;;;;;;;13.74;73.78;99817.09;5098084;28;20044;-65
2023/11/14 11:09:05;;;;;;;6.70;3.80;;;;;;;13.71;73.81;99814.78;5097918;28;20036;-64
2023/11/14 11:11:33;;;;;;;5.80;3.25;;;;;;;13.78;72.92;99812.25;5096198;28;20211;-64
2023/11/14 11:14:02;;;;;;;4.65;3.28;;;;;;;13.80;72.07;99804.06;5098069;28;20043;-64
2023/11/14 11:16:41;;;;;;;6.07;3.75;;;;;;;13.83;70.87;99809.03;5097691;28;20253;-64
2023/11/14 11:19:07;;;;;;;6.32;3.47;;;;;;;13.88;71.85;99798.66;5097081;28;20088;-65
2023/11/14 11:21:34;;;;;;;5.50;3.08;;;;;;;13.98;71.77;99797.41;5097109;28;20043;-66
2023/11/14 11:24:10;;;;;;;6.45;3.42;;;;;;;14.01;73.87;99785.56;5097362;28;20044;-66